Time;durP1;ratioP1;P1;durP2;ratioP2;P2;SDS_P1;SDS_P2;PMS_P1;PMS_P2;Temp;Humidity;BMP_temperature;BMP_pressure;BME280_temperature;BME280_humidity;BME280_pressure;Samples;Min_cycle;Max_cycle;Signal;HPM_P1;HPM_P2
2022/12/06 00:01:28;;;;;;;0.30;0.20;;;;;;;10.01;100.00;95993.94;5073884;28;20937;-53
2022/12/06 00:03:58;;;;;;;2.00;0.30;;;;;;;10.25;100.00;95983.84;5073909;28;20526;-53
2022/12/06 00:06:28;;;;;;;0.50;0.50;;;;;;;9.58;100.00;95992.13;5074353;28;20512;-53
2022/12/06 00:08:58;;;;;;;0.43;0.43;;;;;;;9.77;100.00;95990.75;5074189;28;20484;-53
2022/12/06 00:11:28;;;;;;;0.50;0.40;;;;;;;9.89;100.00;95996.69;5074273;28;20808;-53
2022/12/06 00:14:00;;;;;;;0.50;0.50;;;;;;;9.59;100.00;95989.22;5074408;28;20432;-53
2022/12/06 00:16:29;;;;;;;0.30;0.30;;;;;;;9.49;100.00;95972.41;5074018;28;20438;-53
2022/12/06 00:19:00;;;;;;;0.30;0.20;;;;;;;9.46;100.00;95986.94;5074306;28;20763;-53
2022/12/06 00:21:30;;;;;;;0.47;0.43;;;;;;;9.01;100.00;95872.63;5074097;28;20432;-53
2022/12/06 00:24:01;;;;;;;0.30;0.20;;;;;;;9.53;100.00;95989.41;5074106;28;20420;-53
2022/12/06 00:26:30;;;;;;;0.40;0.40;;;;;;;9.19;100.00;95982.59;5073718;28;20506;-53
2022/12/06 00:29:00;;;;;;;1.77;1.67;;;;;;;9.48;100.00;95981.41;5073200;28;20472;-53
2022/12/06 00:31:30;;;;;;;0.93;0.60;;;;;;;9.76;100.00;95986.50;5073902;28;20432;-53
2022/12/06 00:33:59;;;;;;;0.40;0.30;;;;;;;9.94;100.00;95980.88;5073960;28;20433;-53
2022/12/06 00:36:29;;;;;;;0.30;0.20;;;;;;;9.40;100.00;95902.47;5073629;28;20523;-53
2022/12/06 00:38:59;;;;;;;1.40;1.07;;;;;;;9.62;100.00;95974.69;5073822;28;20442;-54
2022/12/06 00:41:28;;;;;;;1.17;0.47;;;;;;;9.14;100.00;95985.97;5073580;28;20499;-53
2022/12/06 00:43:56;;;;;;;0.30;0.30;;;;;;;9.16;100.00;95983.09;5073545;28;20913;-53
2022/12/06 00:46:28;;;;;;;0.50;0.30;;;;;;;9.67;100.00;95980.03;5073263;28;20526;-53
2022/12/06 00:48:58;;;;;;;0.40;0.30;;;;;;;9.56;100.00;95971.19;5073310;28;20556;-53
2022/12/06 00:51:29;;;;;;;1.17;1.17;;;;;;;9.24;100.00;95958.84;5072374;28;20444;-53
2022/12/06 00:53:57;;;;;;;0.57;0.57;;;;;;;8.99;100.00;95966.44;5073490;28;20432;-53
2022/12/06 00:56:26;;;;;;;0.83;0.67;;;;;;;9.01;100.00;95972.28;5073126;28;20454;-53
2022/12/06 00:58:55;;;;;;;0.30;0.20;;;;;;;9.31;100.00;95970.09;5073146;28;20436;-53
2022/12/06 01:01:27;;;;;;;0.60;0.60;;;;;;;9.53;100.00;95963.75;5072868;28;20440;-53
2022/12/06 01:03:57;;;;;;;0.77;0.77;;;;;;;9.44;100.00;95965.22;5073249;28;20521;-53
2022/12/06 01:06:28;;;;;;;0.70;0.60;;;;;;;9.09;100.00;95966.59;5073126;28;20510;-53
2022/12/06 01:08:57;;;;;;;0.80;0.80;;;;;;;9.20;100.00;95968.34;5072934;28;20945;-53
2022/12/06 01:11:26;;;;;;;0.30;0.20;;;;;;;9.26;100.00;95968.16;5072776;28;20432;-53
2022/12/06 01:13:55;;;;;;;0.87;0.87;;;;;;;8.82;100.00;95967.28;5072180;28;20935;-53
2022/12/06 01:16:26;;;;;;;1.80;1.80;;;;;;;8.44;100.00;95866.84;5072612;28;20438;-53
2022/12/06 01:18:57;;;;;;;0.40;0.37;;;;;;;9.21;100.00;95960.16;5072898;28;20494;-54
2022/12/06 01:21:26;;;;;;;0.40;0.30;;;;;;;9.49;100.00;95956.53;5072226;28;20963;-53
2022/12/06 01:23:55;;;;;;;0.30;0.20;;;;;;;9.70;100.00;95957.56;5072711;28;20433;-54
2022/12/06 01:26:25;;;;;;;0.47;0.40;;;;;;;9.78;100.00;95955.28;5072568;28;20903;-54
2022/12/06 01:28:54;;;;;;;0.50;0.40;;;;;;;9.85;100.00;95950.59;5072381;28;21024;-54
2022/12/06 01:31:22;;;;;;;1.27;1.27;;;;;;;9.06;100.00;95834.88;5072446;28;20446;-54
2022/12/06 01:33:52;;;;;;;3.17;0.40;;;;;;;9.82;100.00;95956.38;5072608;28;20464;-55
2022/12/06 01:36:22;;;;;;;0.30;0.30;;;;;;;9.68;100.00;95955.19;5072630;28;20431;-54
2022/12/06 01:38:51;;;;;;;0.37;0.27;;;;;;;9.46;100.00;95954.41;5072275;28;20527;-54
2022/12/06 01:41:22;;;;;;;2.40;0.80;;;;;;;9.49;100.00;95956.53;5071674;28;20435;-54
2022/12/06 01:43:51;;;;;;;0.40;0.40;;;;;;;9.64;100.00;95943.47;5071964;28;20428;-54
2022/12/06 01:46:31;;;;;;;0.93;0.93;;;;;;;9.23;100.00;95925.53;5072386;28;20467;-54
2022/12/06 01:49:20;;;;;;;0.60;0.50;;;;;;;9.19;100.00;95948.22;5072354;28;20474;-54
2022/12/06 01:51:51;;;;;;;0.57;0.57;;;;;;;9.32;100.00;95950.50;5071463;28;20854;-55
2022/12/06 01:54:23;;;;;;;0.53;0.53;;;;;;;9.41;100.00;95944.53;5072280;28;20933;-55
2022/12/06 01:56:53;;;;;;;0.53;0.50;;;;;;;9.81;100.00;95946.88;5072289;28;20531;-54
2022/12/06 01:59:23;;;;;;;1.83;0.40;;;;;;;9.98;100.00;95947.56;5072141;28;20534;-54
2022/12/06 02:01:53;;;;;;;0.30;0.30;;;;;;;10.01;100.00;95936.47;5072679;28;20428;-54
2022/12/06 02:04:23;;;;;;;0.40;0.30;;;;;;;10.14;100.00;95938.72;5072200;28;20811;-55
2022/12/06 02:06:54;;;;;;;0.77;0.77;;;;;;;10.21;100.00;95933.25;5071654;28;20803;-55
2022/12/06 02:09:23;;;;;;;2.93;2.67;;;;;;;10.24;100.00;95945.19;5072072;28;20922;-52
2022/12/06 02:11:51;;;;;;;0.80;0.80;;;;;;;10.17;100.00;95937.44;5071213;28;20487;-52
2022/12/06 02:14:23;;;;;;;0.40;0.40;;;;;;;10.13;100.00;95944.28;5071761;28;20524;-52
2022/12/06 02:17:08;;;;;;;0.40;0.30;;;;;;;9.88;100.00;95938.72;5071506;28;20436;-54
2022/12/06 02:20:05;;;;;;;0.30;0.20;;;;;;;10.04;100.00;95927.22;5071974;28;20534;-53
2022/12/06 02:22:52;;;;;;;0.40;0.30;;;;;;;9.83;100.00;95923.59;5049261;28;20536;-54
2022/12/06 02:25:51;;;;;;;0.40;0.40;;;;;;;9.51;100.00;95920.06;5071268;28;20467;-53
2022/12/06 02:28:49;;;;;;;0.40;0.40;;;;;;;9.26;100.00;95920.53;5071765;28;20472;-53
2022/12/06 02:31:25;;;;;;;0.30;0.27;;;;;;;9.26;100.00;95920.53;5071515;28;20435;-53
2022/12/06 02:34:11;;;;;;;0.40;0.30;;;;;;;9.34;100.00;95916.66;5071627;28;20420;-54
2022/12/06 02:36:45;;;;;;;0.50;0.50;;;;;;;9.21;100.00;95898.53;5071838;28;20468;-53
2022/12/06 02:39:18;;;;;;;0.50;0.50;;;;;;;9.61;100.00;95912.22;5071555;28;20512;-53
2022/12/06 02:41:53;;;;;;;0.40;0.30;;;;;;;9.76;100.00;95917.69;5071625;28;20436;-53
2022/12/06 02:44:26;;;;;;;0.37;0.27;;;;;;;9.58;100.00;95920.66;5071369;28;20759;-53
2022/12/06 02:46:57;;;;;;;0.47;0.30;;;;;;;9.76;100.00;95914.25;5071759;28;20511;-53
2022/12/06 02:49:31;;;;;;;0.67;0.67;;;;;;;9.78;100.00;95910.28;5071253;28;20476;-53
2022/12/06 02:51:59;;;;;;;0.40;0.20;;;;;;;9.96;100.00;95909.94;5071319;28;20464;-53
2022/12/06 02:54:30;;;;;;;0.40;0.30;;;;;;;9.68;100.00;95902.25;5071262;28;20434;-53
2022/12/06 02:56:58;;;;;;;0.40;0.40;;;;;;;9.34;100.00;95906.06;5071360;28;20425;-53
2022/12/06 02:59:26;;;;;;;0.40;0.30;;;;;;;9.14;100.00;95909.28;5071250;28;20436;-53
2022/12/06 03:02:01;;;;;;;0.50;0.50;;;;;;;9.19;100.00;95914.63;5070712;28;20432;-53
2022/12/06 03:04:52;;;;;;;0.30;0.20;;;;;;;9.23;100.00;95878.72;5070809;28;20435;-53
2022/12/06 03:07:35;;;;;;;0.67;0.67;;;;;;;9.43;100.00;95907.25;5071253;28;20430;-54
2022/12/06 03:10:28;;;;;;;0.30;0.20;;;;;;;9.49;100.00;95904.41;5070962;28;20483;-53
2022/12/06 03:13:08;;;;;;;2.83;0.93;;;;;;;9.43;100.00;95904.63;5071502;28;20932;-54
2022/12/06 03:15:46;;;;;;;0.43;0.43;;;;;;;9.41;100.00;95898.78;5071139;28;20969;-54
2022/12/06 03:18:21;;;;;;;0.90;0.53;;;;;;;9.59;100.00;95901.06;5071127;28;20443;-54
2022/12/06 03:20:54;;;;;;;4.13;1.17;;;;;;;9.30;100.00;95902.34;5071558;28;20815;-53
2022/12/06 03:23:26;;;;;;;0.40;0.30;;;;;;;8.82;100.00;95827.19;5071234;28;20944;-53
2022/12/06 03:25:58;;;;;;;0.53;0.53;;;;;;;9.46;100.00;95898.84;5071234;28;20429;-54
2022/12/06 03:28:29;;;;;;;0.47;0.47;;;;;;;8.95;100.00;95810.94;5071655;28;20460;-54
2022/12/06 03:31:01;;;;;;;0.80;0.30;;;;;;;9.55;100.00;95892.84;5071372;28;20451;-54
2022/12/06 03:33:35;;;;;;;3.33;0.60;;;;;;;9.80;100.00;95886.22;5071266;28;20467;-54
2022/12/06 03:36:04;;;;;;;0.40;0.30;;;;;;;10.10;100.00;95889.94;5071429;28;20435;-54
2022/12/06 03:38:37;;;;;;;2.17;0.57;;;;;;;10.22;100.00;95892.44;5073237;28;20428;-54
2022/12/06 03:41:07;;;;;;;0.40;0.40;;;;;;;10.23;100.00;95895.91;5075151;28;20780;-54
2022/12/06 03:43:36;;;;;;;0.30;0.30;;;;;;;10.15;100.00;95890.00;5074575;28;20458;-54
2022/12/06 03:46:10;;;;;;;0.40;0.30;;;;;;;10.13;100.00;95886.03;5074834;28;20433;-54
2022/12/06 03:48:43;;;;;;;2.03;0.50;;;;;;;10.08;100.00;95870.84;5074467;28;20432;-53
2022/12/06 03:51:17;;;;;;;2.00;0.30;;;;;;;10.05;100.00;95887.25;5074183;28;20432;-54
2022/12/06 03:53:48;;;;;;;0.30;0.20;;;;;;;9.94;100.00;95880.25;5074457;28;20497;-54
2022/12/06 03:56:16;;;;;;;0.30;0.20;;;;;;;9.72;100.00;95884.00;5074329;28;20428;-54
2022/12/06 03:58:44;;;;;;;0.30;0.20;;;;;;;9.77;100.00;95874.28;5074648;28;20816;-54
2022/12/06 04:01:13;;;;;;;0.30;0.20;;;;;;;9.94;100.00;95884.78;5074703;28;20775;-54
2022/12/06 04:03:43;;;;;;;0.50;0.50;;;;;;;9.49;100.00;95877.94;5074245;28;20432;-54
2022/12/06 04:06:12;;;;;;;0.67;0.67;;;;;;;9.21;100.00;95854.34;5074276;28;20874;-54
2022/12/06 04:08:40;;;;;;;0.37;0.30;;;;;;;9.44;100.00;95883.19;5074416;28;20435;-54
2022/12/06 04:11:08;;;;;;;0.40;0.30;;;;;;;9.53;100.00;95886.22;5074000;28;20484;-54
2022/12/06 04:13:37;;;;;;;0.40;0.30;;;;;;;9.72;100.00;95887.47;5073812;28;20437;-54
2022/12/06 04:18:09;;;;;;;1.40;1.37;;;;;;;9.91;100.00;95880.78;5073956;28;20426;-54
2022/12/06 04:18:55;;;;;;;0.40;0.40;;;;;;;9.86;100.00;95891.31;5073917;28;20483;-54
2022/12/06 04:24:09;;;;;;;0.30;0.30;;;;;;;9.58;100.00;95881.78;5074221;28;20461;-54
2022/12/06 04:26:38;;;;;;;0.83;0.83;;;;;;;9.73;100.00;95893.56;5073830;28;20436;-54
2022/12/06 04:40:10;;;;;;;1.57;1.57;;;;;;;9.61;100.00;95884.97;5073882;28;20422;-54
2022/12/06 04:45:24;;;;;;;0.40;0.30;;;;;;;9.54;100.00;95893.06;5073728;28;20447;-54
2022/12/06 04:47:53;;;;;;;3.63;0.50;;;;;;;9.62;100.00;95887.34;5073511;28;20849;-54
2022/12/06 04:50:22;;;;;;;0.40;0.30;;;;;;;9.69;100.00;95892.47;5072654;28;20468;-54
2022/12/06 04:52:51;;;;;;;0.40;0.30;;;;;;;9.70;100.00;95891.41;5073321;28;20558;-54
2022/12/06 04:55:19;;;;;;;2.20;1.67;;;;;;;9.77;100.00;95892.81;5072820;28;20443;-54
2022/12/06 04:57:47;;;;;;;1.23;0.70;;;;;;;9.87;100.00;95900.84;5073341;28;20520;-54
2022/12/06 05:00:16;;;;;;;0.40;0.30;;;;;;;9.95;100.00;95892.44;5072697;28;20429;-54
2022/12/06 05:02:44;;;;;;;0.30;0.30;;;;;;;9.50;100.00;95834.59;5073018;28;20431;-54
2022/12/06 05:05:13;;;;;;;0.50;0.30;;;;;;;9.91;100.00;95899.31;5073127;28;20527;-54
2022/12/06 05:07:42;;;;;;;0.90;0.87;;;;;;;9.83;100.00;95898.94;5073552;28;20463;-54
2022/12/06 05:10:12;;;;;;;0.30;0.30;;;;;;;9.77;100.00;95906.03;5073196;28;20525;-54
2022/12/06 05:12:40;;;;;;;1.63;1.63;;;;;;;9.71;100.00;95899.09;5073423;28;20438;-54
2022/12/06 05:15:09;;;;;;;0.40;0.33;;;;;;;9.66;100.00;95900.91;5073172;28;20439;-53
2022/12/06 05:17:37;;;;;;;0.60;0.40;;;;;;;9.84;100.00;95903.97;5072700;28;20923;-53
2022/12/06 05:20:07;;;;;;;0.70;0.70;;;;;;;9.85;100.00;95900.28;5072628;28;20442;-54
2022/12/06 05:22:35;;;;;;;4.13;1.70;;;;;;;9.82;100.00;95897.34;5072775;28;20430;-54
2022/12/06 05:25:06;;;;;;;0.40;0.40;;;;;;;9.72;100.00;95903.34;5071945;28;20447;-54
2022/12/06 05:27:34;;;;;;;0.40;0.40;;;;;;;9.97;100.00;95908.06;5072631;28;20470;-54
2022/12/06 05:30:04;;;;;;;0.70;0.63;;;;;;;9.94;100.00;95906.72;5072779;28;20479;-54
2022/12/06 05:32:32;;;;;;;1.30;1.20;;;;;;;9.21;100.00;95813.91;5072050;28;20807;-54
2022/12/06 05:35:01;;;;;;;1.43;0.80;;;;;;;9.74;100.00;95900.47;5072227;28;20435;-54
2022/12/06 05:37:29;;;;;;;0.40;0.40;;;;;;;9.69;100.00;95909.13;5072374;28;20473;-55
2022/12/06 05:39:57;;;;;;;0.80;0.80;;;;;;;9.74;100.00;95906.53;5072559;28;20463;-54
2022/12/06 05:42:30;;;;;;;7.20;1.90;;;;;;;9.84;100.00;95901.34;5072103;28;20476;-54
2022/12/06 05:44:58;;;;;;;0.73;0.73;;;;;;;10.13;100.00;95901.91;5072150;28;20897;-54
2022/12/06 05:47:26;;;;;;;5.33;1.03;;;;;;;9.98;100.00;95902.56;5072153;28;20433;-54
2022/12/06 05:49:55;;;;;;;4.63;1.50;;;;;;;9.82;100.00;95902.63;5072179;28;20443;-54
2022/12/06 05:52:23;;;;;;;3.97;3.77;;;;;;;9.87;100.00;95879.66;5071596;28;21086;-54
2022/12/06 05:54:51;;;;;;;4.33;2.10;;;;;;;9.73;100.00;95898.84;5072052;28;20449;-54
2022/12/06 05:57:20;;;;;;;1.23;1.13;;;;;;;9.55;100.00;95881.47;5072385;28;20772;-54
2022/12/06 05:59:49;;;;;;;2.57;2.13;;;;;;;9.62;100.00;95913.81;5072175;28;20434;-54
2022/12/06 06:02:18;;;;;;;1.07;1.07;;;;;;;9.57;100.00;95908.47;5071850;28;20476;-54
2022/12/06 06:04:46;;;;;;;1.60;0.70;;;;;;;9.67;100.00;95905.94;5071886;28;20439;-54
2022/12/06 06:07:14;;;;;;;0.60;0.60;;;;;;;9.52;100.00;95908.41;5072104;28;20918;-54
2022/12/06 06:09:43;;;;;;;1.90;0.73;;;;;;;9.25;100.00;95907.56;5071711;28;20928;-54
2022/12/06 06:12:11;;;;;;;1.83;1.73;;;;;;;9.48;100.00;95908.13;5071750;28;21002;-54
2022/12/06 06:14:40;;;;;;;1.33;1.33;;;;;;;9.55;100.00;95908.72;5071844;28;20481;-54
2022/12/06 06:17:09;;;;;;;2.17;2.07;;;;;;;9.36;100.00;95845.81;5071661;28;20444;-54
2022/12/06 06:19:37;;;;;;;1.57;0.73;;;;;;;9.71;100.00;95904.41;5072129;28;20766;-54
2022/12/06 06:22:06;;;;;;;2.80;0.80;;;;;;;9.40;100.00;95910.41;5071611;28;20524;-53
2022/12/06 06:24:39;;;;;;;4.83;2.40;;;;;;;9.55;100.00;95905.28;5072112;28;20511;-53
2022/12/06 06:27:07;;;;;;;1.13;1.10;;;;;;;9.43;100.00;95916.00;5071360;28;20436;-53
2022/12/06 06:29:35;;;;;;;0.83;0.80;;;;;;;9.39;100.00;95924.66;5072065;28;20428;-53
2022/12/06 06:32:13;;;;;;;1.50;1.40;;;;;;;9.52;100.00;95925.09;5071701;28;20480;-53
2022/12/06 06:34:41;;;;;;;2.57;1.17;;;;;;;9.58;100.00;95912.72;5071296;28;20438;-53
2022/12/06 06:37:10;;;;;;;1.27;1.27;;;;;;;9.56;100.00;95925.41;5071324;28;20428;-53
2022/12/06 06:39:38;;;;;;;1.43;1.43;;;;;;;9.58;100.00;95924.13;5071255;28;20526;-53
2022/12/06 06:42:06;;;;;;;1.27;1.23;;;;;;;9.72;100.00;95919.22;5071217;28;20428;-52
2022/12/06 06:44:35;;;;;;;1.07;1.07;;;;;;;9.80;100.00;95921.44;5071297;28;20441;-53
2022/12/06 06:47:03;;;;;;;0.43;0.43;;;;;;;9.76;100.00;95915.03;5071114;28;20784;-52
2022/12/06 06:49:33;;;;;;;0.63;0.63;;;;;;;9.64;100.00;95910.94;5071083;28;20476;-52
2022/12/06 06:52:01;;;;;;;1.27;1.27;;;;;;;9.79;100.00;95927.75;5071406;28;21708;-52
2022/12/06 06:54:29;;;;;;;2.60;2.50;;;;;;;9.81;100.00;95932.81;5071182;28;20436;-53
2022/12/06 06:56:58;;;;;;;4.27;0.80;;;;;;;9.44;100.00;95919.44;5071450;28;20428;-53
2022/12/06 06:59:26;;;;;;;1.07;1.07;;;;;;;9.58;100.00;95931.25;5071284;28;20520;-53
2022/12/06 07:01:54;;;;;;;1.10;1.00;;;;;;;9.59;100.00;95925.69;5071160;28;20436;-54
2022/12/06 07:04:23;;;;;;;1.93;1.60;;;;;;;9.86;100.00;95928.38;5071262;28;20983;-53
2022/12/06 07:06:53;;;;;;;0.53;0.50;;;;;;;10.12;100.00;95918.84;5071211;28;20472;-53
2022/12/06 07:09:21;;;;;;;0.53;0.53;;;;;;;9.88;100.00;95917.53;5071158;28;20455;-53
2022/12/06 07:11:49;;;;;;;7.40;1.23;;;;;;;9.92;100.00;95921.28;5070938;28;20849;-53
2022/12/06 07:14:18;;;;;;;0.70;0.60;;;;;;;9.97;100.00;95916.81;5074146;28;20470;-54
2022/12/06 07:16:46;;;;;;;1.47;1.37;;;;;;;10.12;100.00;95914.34;5074977;28;20420;-53
2022/12/06 07:19:14;;;;;;;1.07;0.53;;;;;;;10.19;100.00;95909.63;5075151;28;20451;-54
2022/12/06 07:21:43;;;;;;;7.20;0.57;;;;;;;10.19;100.00;95912.28;5075183;28;20428;-54
2022/12/06 07:24:12;;;;;;;0.67;0.63;;;;;;;10.08;100.00;95907.13;5074988;28;20460;-54
2022/12/06 07:26:41;;;;;;;2.70;0.83;;;;;;;10.07;100.00;95910.81;5074866;28;20471;-54
2022/12/06 07:29:09;;;;;;;0.50;0.50;;;;;;;10.26;100.00;95916.59;5074751;28;20435;-54
2022/12/06 07:31:39;;;;;;;0.60;0.60;;;;;;;10.47;100.00;95913.88;5074589;28;20570;-54
2022/12/06 07:34:07;;;;;;;1.43;1.33;;;;;;;10.18;100.00;95913.34;5074623;28;20516;-54
2022/12/06 07:36:35;;;;;;;2.60;1.33;;;;;;;10.07;100.00;95914.28;5074612;28;20476;-54
2022/12/06 07:39:07;;;;;;;1.17;0.40;;;;;;;10.37;100.00;95911.13;5074630;28;20897;-54
2022/12/06 07:47:14;;;;;;;1.07;1.07;;;;;;;10.84;100.00;95914.66;5074295;28;20461;-54
2022/12/06 07:49:43;;;;;;;0.60;0.57;;;;;;;10.62;100.00;95918.47;5074297;28;20463;-54
2022/12/06 07:52:11;;;;;;;1.20;1.20;;;;;;;10.44;100.00;95911.72;5072611;28;20488;-54
2022/12/06 07:54:40;;;;;;;0.77;0.77;;;;;;;10.54;100.00;95906.50;5073090;28;20440;-54
2022/12/06 07:57:10;;;;;;;1.23;1.13;;;;;;;10.62;100.00;95907.88;5073559;28;20519;-54
2022/12/06 07:59:38;;;;;;;0.40;0.30;;;;;;;10.68;100.00;95896.22;5073999;28;20461;-54
2022/12/06 08:02:06;;;;;;;2.20;1.40;;;;;;;10.96;100.00;95905.69;5073623;28;20829;-54
2022/12/06 08:04:35;;;;;;;1.47;0.70;;;;;;;10.82;100.00;95900.06;5073574;28;20436;-54
2022/12/06 08:07:06;;;;;;;0.50;0.43;;;;;;;10.85;100.00;95891.59;5073696;28;20436;-54
2022/12/06 08:09:34;;;;;;;1.90;1.80;;;;;;;10.85;100.00;95904.84;5073857;28;20418;-54
2022/12/06 08:12:03;;;;;;;1.33;1.33;;;;;;;10.53;100.00;95914.69;5074244;28;20476;-54
2022/12/06 08:14:33;;;;;;;2.30;1.70;;;;;;;10.52;100.00;95918.41;5073883;28;20937;-54
2022/12/06 08:17:04;;;;;;;1.27;1.17;;;;;;;10.37;100.00;95912.97;5073931;28;20432;-56
2022/12/06 08:19:35;;;;;;;5.70;1.43;;;;;;;9.99;100.00;95853.81;5073890;28;20461;-54
2022/12/06 08:22:05;;;;;;;0.50;0.50;;;;;;;10.70;100.00;95892.28;5074085;28;20427;-54
2022/12/06 08:24:33;;;;;;;1.43;1.43;;;;;;;11.04;100.00;95892.75;5073477;28;20444;-54
2022/12/06 08:27:01;;;;;;;12.00;1.17;;;;;;;11.06;100.00;95903.09;5073460;28;20937;-54
2022/12/06 08:29:30;;;;;;;1.20;1.13;;;;;;;10.89;100.00;95905.13;5073574;28;20442;-55
2022/12/06 08:31:59;;;;;;;1.60;1.60;;;;;;;10.47;100.00;95913.06;5073514;28;20495;-54
2022/12/06 08:34:28;;;;;;;1.17;1.17;;;;;;;10.35;100.00;95909.78;5073564;28;20421;-54
2022/12/06 08:36:56;;;;;;;1.17;1.10;;;;;;;10.51;100.00;95907.00;5073371;28;20418;-54
2022/12/06 08:39:30;;;;;;;12.80;1.63;;;;;;;10.62;100.00;95910.53;5072880;28;20865;-54
2022/12/06 08:41:59;;;;;;;0.57;0.57;;;;;;;10.55;100.00;95907.31;5073080;28;20450;-54
2022/12/06 08:44:28;;;;;;;1.60;0.67;;;;;;;10.07;100.00;95808.34;5072848;28;20435;-54
2022/12/06 08:47:00;;;;;;;0.80;0.80;;;;;;;10.93;100.00;95896.38;5073072;28;20934;-55
2022/12/06 08:49:32;;;;;;;1.60;1.50;;;;;;;10.68;100.00;95883.78;5072837;28;20437;-54
2022/12/06 08:52:00;;;;;;;0.53;0.53;;;;;;;11.14;100.00;95897.28;5072757;28;21008;-55
2022/12/06 08:54:29;;;;;;;0.90;0.63;;;;;;;10.87;100.00;95894.78;5072856;28;20460;-54
2022/12/06 08:56:58;;;;;;;0.60;0.50;;;;;;;10.57;100.00;95891.94;5072883;28;20422;-54
2022/12/06 08:59:26;;;;;;;1.43;0.90;;;;;;;10.42;100.00;95829.03;5072990;28;20440;-55
2022/12/06 09:01:56;;;;;;;6.77;1.10;;;;;;;11.03;100.00;95882.41;5073316;28;20791;-54
2022/12/06 09:04:35;;;;;;;1.93;0.80;;;;;;;10.70;100.00;95876.38;5073026;28;20428;-55
2022/12/06 09:07:03;;;;;;;1.03;1.03;;;;;;;10.53;100.00;95859.81;5073026;28;20456;-55
2022/12/06 09:09:53;;;;;;;1.90;1.80;;;;;;;10.44;100.00;95879.13;5072961;28;20466;-55
2022/12/06 09:15:08;;;;;;;3.50;2.20;;;;;;;10.52;100.00;95871.50;5072834;28;20493;-55
2022/12/06 09:17:37;;;;;;;0.77;0.70;;;;;;;10.09;100.00;95790.34;5072737;28;20425;-55
2022/12/06 09:20:16;;;;;;;0.97;0.97;;;;;;;11.15;100.00;95862.56;5072680;28;20429;-55
2022/12/06 09:22:45;;;;;;;0.63;0.40;;;;;;;11.27;100.00;95857.03;5072158;28;20438;-55
2022/12/06 09:25:14;;;;;;;0.90;0.90;;;;;;;10.94;100.00;95863.50;5072620;28;20441;-55
2022/12/06 09:27:49;;;;;;;0.40;0.40;;;;;;;10.58;100.00;95861.72;5072507;28;20484;-55
2022/12/06 09:30:17;;;;;;;0.90;0.90;;;;;;;10.78;100.00;95851.22;5072521;28;20513;-55
2022/12/06 09:32:47;;;;;;;1.53;1.43;;;;;;;10.60;100.00;95831.25;5072379;28;20920;-55
2022/12/06 09:35:17;;;;;;;6.47;0.53;;;;;;;10.92;100.00;95841.75;5072246;28;20467;-56
2022/12/06 09:37:52;;;;;;;0.57;0.57;;;;;;;10.81;100.00;95834.81;5072510;28;20422;-55
2022/12/06 09:40:33;;;;;;;0.30;0.30;;;;;;;11.06;99.28;95834.91;5072873;28;20923;-55
2022/12/06 09:43:18;;;;;;;0.83;0.83;;;;;;;10.77;98.30;95818.63;5072498;28;20417;-55
2022/12/06 09:46:08;;;;;;;0.50;0.50;;;;;;;10.99;100.00;95822.94;5072349;28;20432;-56
2022/12/06 09:49:15;;;;;;;1.37;0.53;;;;;;;10.96;100.00;95811.00;5072360;28;20468;-54
2022/12/06 09:52:24;;;;;;;1.43;1.33;;;;;;;10.76;100.00;95818.88;5071614;28;20440;-55
2022/12/06 09:55:14;;;;;;;0.93;0.93;;;;;;;10.63;100.00;95808.72;5067599;28;20438;-54
2022/12/06 09:57:48;;;;;;;0.40;0.30;;;;;;;11.04;100.00;95807.06;5072084;28;20808;-55
2022/12/06 10:00:22;;;;;;;0.40;0.20;;;;;;;11.15;99.40;95806.84;5071977;28;20519;-55
2022/12/06 10:03:21;;;;;;;0.40;0.30;;;;;;;10.98;100.00;95805.47;5072095;28;20433;-55
2022/12/06 10:05:59;;;;;;;0.30;0.30;;;;;;;10.77;100.00;95778.84;5072106;28;20430;-56
2022/12/06 10:08:44;;;;;;;0.40;0.30;;;;;;;11.18;96.69;95790.38;5072110;28;20461;-56
2022/12/06 10:11:23;;;;;;;0.30;0.20;;;;;;;11.22;97.34;95786.16;5071998;28;20432;-55
2022/12/06 10:14:07;;;;;;;0.57;0.57;;;;;;;10.98;96.71;95784.25;5072207;28;20470;-56
2022/12/06 10:16:51;;;;;;;1.07;1.07;;;;;;;11.27;96.19;95772.13;5072225;28;20428;-55
2022/12/06 10:19:28;;;;;;;0.57;0.57;;;;;;;11.36;93.54;95770.53;5072042;28;20435;-56
2022/12/06 10:22:12;;;;;;;0.53;0.53;;;;;;;11.23;94.50;95771.81;5071894;28;20952;-55
2022/12/06 10:24:55;;;;;;;3.43;1.30;;;;;;;11.15;96.17;95769.72;5071894;28;20428;-55
2022/12/06 10:27:29;;;;;;;0.50;0.50;;;;;;;11.24;96.95;95768.13;5071875;28;20425;-54
2022/12/06 10:30:02;;;;;;;0.47;0.47;;;;;;;11.20;97.99;95761.75;5071588;28;20430;-55
2022/12/06 10:32:53;;;;;;;2.23;1.10;;;;;;;11.17;100.00;95762.28;5071969;28;20474;-55
2022/12/06 10:35:39;;;;;;;0.70;0.70;;;;;;;11.58;95.96;95754.38;5072042;28;20971;-55
2022/12/06 10:38:19;;;;;;;0.40;0.40;;;;;;;11.87;92.57;95752.81;5071841;28;20447;-55
2022/12/06 10:41:05;;;;;;;0.40;0.30;;;;;;;11.87;91.38;95744.84;5071768;28;20447;-55
2022/12/06 10:43:56;;;;;;;1.90;0.50;;;;;;;11.49;93.19;95744.28;5071715;28;20534;-55
2022/12/06 10:49:26;;;;;;;0.50;0.50;;;;;;;11.22;96.75;95733.09;5075395;28;20438;-55
2022/12/06 10:52:01;;;;;;;0.40;0.40;;;;;;;11.64;94.77;95721.47;5075608;28;20500;-55
2022/12/06 10:54:35;;;;;;;0.83;0.77;;;;;;;11.17;93.83;95727.78;5075867;28;20569;-55
2022/12/06 10:57:11;;;;;;;0.40;0.40;;;;;;;11.49;92.06;95723.06;5075663;28;20426;-55
2022/12/06 10:59:50;;;;;;;0.40;0.40;;;;;;;11.80;92.19;95713.25;5075758;28;20425;-55
2022/12/06 11:02:28;;;;;;;0.63;0.63;;;;;;;12.03;89.27;95703.94;5075407;28;20428;-56
2022/12/06 11:05:01;;;;;;;1.37;1.30;;;;;;;11.88;90.10;95704.75;5074601;28;20877;-55
2022/12/06 11:07:37;;;;;;;0.90;0.50;;;;;;;11.83;89.96;95680.06;5075082;28;20776;-55
2022/12/06 11:10:17;;;;;;;1.87;1.27;;;;;;;12.01;89.20;95706.88;5074345;28;20426;-55
2022/12/06 11:12:53;;;;;;;2.93;0.90;;;;;;;11.92;87.22;95697.84;5075090;28;20461;-56
2022/12/06 11:15:26;;;;;;;0.83;0.53;;;;;;;12.23;86.34;95687.16;5074095;28;20460;-56
2022/12/06 11:18:02;;;;;;;1.13;0.90;;;;;;;12.30;84.19;95677.81;5075202;28;20437;-56
2022/12/06 11:20:38;;;;;;;1.00;1.00;;;;;;;11.96;85.23;95682.19;5075035;28;20468;-56
2022/12/06 11:23:12;;;;;;;0.90;0.90;;;;;;;12.21;86.16;95699.91;5075338;28;20452;-56
2022/12/06 11:25:59;;;;;;;4.93;0.67;;;;;;;12.42;85.76;95694.25;5074875;28;20911;-56
2022/12/06 11:28:36;;;;;;;0.40;0.40;;;;;;;11.84;86.37;95649.81;5074816;28;20464;-56
2022/12/06 11:31:16;;;;;;;3.10;1.07;;;;;;;12.21;87.49;95679.47;5075025;28;20427;-56
2022/12/06 11:33:45;;;;;;;0.40;0.30;;;;;;;12.47;83.25;95680.19;5074729;28;20959;-56
2022/12/06 11:36:14;;;;;;;0.93;0.93;;;;;;;12.95;79.99;95652.00;5074692;28;20510;-56
2022/12/06 11:38:44;;;;;;;3.07;0.70;;;;;;;13.51;78.00;95647.91;5074684;28;20428;-57
2022/12/06 11:41:19;;;;;;;0.53;0.43;;;;;;;13.80;75.33;95651.38;5074694;28;20430;-57
2022/12/06 11:43:51;;;;;;;1.07;1.03;;;;;;;14.11;75.12;95667.06;5075087;28;20415;-57
2022/12/06 11:46:20;;;;;;;2.30;0.60;;;;;;;13.80;72.28;95590.09;5074564;28;20487;-59
2022/12/06 11:48:49;;;;;;;0.43;0.40;;;;;;;14.19;70.78;95631.81;5074337;28;20433;-58
2022/12/06 11:51:20;;;;;;;0.60;0.40;;;;;;;14.89;68.63;95652.28;5074374;28;20463;-59
2022/12/06 11:53:57;;;;;;;0.50;0.30;;;;;;;13.89;70.32;95656.88;5074521;28;20491;-59
2022/12/06 11:56:29;;;;;;;0.40;0.30;;;;;;;13.91;71.23;95652.84;5074704;28;20805;-59
2022/12/06 11:59:07;;;;;;;0.60;0.50;;;;;;;13.32;73.04;95647.00;5073957;28;20531;-59
2022/12/06 12:01:42;;;;;;;0.50;0.50;;;;;;;13.00;74.92;95657.31;5074629;28;20432;-59
2022/12/06 12:04:31;;;;;;;1.07;0.93;;;;;;;13.34;74.07;95650.97;5074530;28;20550;-60
2022/12/06 12:07:02;;;;;;;1.47;1.47;;;;;;;13.61;72.57;95642.47;5074157;28;20417;-59
2022/12/06 12:09:35;;;;;;;0.40;0.30;;;;;;;13.88;72.01;95632.13;5074519;28;20436;-59
2022/12/06 12:12:06;;;;;;;0.40;0.30;;;;;;;13.98;71.36;95600.03;5074210;28;20439;-59
2022/12/06 12:14:40;;;;;;;0.77;0.77;;;;;;;13.51;71.88;95626.59;5074057;28;20468;-57
2022/12/06 12:17:19;;;;;;;0.70;0.40;;;;;;;13.56;72.65;95623.88;5074360;28;20425;-58
2022/12/06 12:19:52;;;;;;;0.50;0.50;;;;;;;13.96;70.15;95628.06;5073866;28;20429;-58
2022/12/06 12:22:30;;;;;;;0.50;0.30;;;;;;;13.93;70.71;95600.09;5074032;28;20426;-58
2022/12/06 12:25:00;;;;;;;0.40;0.30;;;;;;;13.15;70.21;95543.59;5073864;28;20471;-57